sensor_id;sensor_type;location;lat;lon;timestamp;P1;durP1;ratioP1;P2;durP2;ratioP2
3443;SDS011;1736;52.068;6.968;2023-06-22T00:02:25;13.57;;;11.83;;
3443;SDS011;1736;52.068;6.968;2023-06-22T00:04:51;14.60;;;12.80;;
3443;SDS011;1736;52.068;6.968;2023-06-22T00:07:18;14.37;;;12.13;;
3443;SDS011;1736;52.068;6.968;2023-06-22T00:09:44;14.07;;;12.00;;
3443;SDS011;1736;52.068;6.968;2023-06-22T00:12:11;15.97;;;12.33;;
3443;SDS011;1736;52.068;6.968;2023-06-22T00:14:39;17.20;;;12.83;;
3443;SDS011;1736;52.068;6.968;2023-06-22T00:17:05;17.63;;;12.50;;
3443;SDS011;1736;52.068;6.968;2023-06-22T00:19:32;17.63;;;12.40;;
3443;SDS011;1736;52.068;6.968;2023-06-22T00:22:00;17.57;;;14.00;;
3443;SDS011;1736;52.068;6.968;2023-06-22T00:24:28;18.50;;;13.47;;
3443;SDS011;1736;52.068;6.968;2023-06-22T00:26:55;18.27;;;13.83;;
3443;SDS011;1736;52.068;6.968;2023-06-22T00:29:21;19.90;;;13.60;;
3443;SDS011;1736;52.068;6.968;2023-06-22T00:31:49;19.20;;;13.40;;
3443;SDS011;1736;52.068;6.968;2023-06-22T00:34:16;22.10;;;14.53;;
3443;SDS011;1736;52.068;6.968;2023-06-22T00:36:42;16.70;;;13.17;;
3443;SDS011;1736;52.068;6.968;2023-06-22T00:39:09;18.20;;;14.10;;
3443;SDS011;1736;52.068;6.968;2023-06-22T00:41:36;17.20;;;14.20;;
3443;SDS011;1736;52.068;6.968;2023-06-22T00:44:02;19.17;;;13.63;;
3443;SDS011;1736;52.068;6.968;2023-06-22T00:46:29;16.40;;;13.57;;
3443;SDS011;1736;52.068;6.968;2023-06-22T00:48:57;21.37;;;15.27;;
3443;SDS011;1736;52.068;6.968;2023-06-22T00:51:23;22.67;;;13.80;;
3443;SDS011;1736;52.068;6.968;2023-06-22T00:53:51;19.90;;;15.23;;
3443;SDS011;1736;52.068;6.968;2023-06-22T00:56:18;20.60;;;16.13;;
3443;SDS011;1736;52.068;6.968;2023-06-22T00:58:49;18.43;;;14.83;;
3443;SDS011;1736;52.068;6.968;2023-06-22T01:01:18;22.57;;;15.47;;
3443;SDS011;1736;52.068;6.968;2023-06-22T01:03:48;21.70;;;15.73;;
3443;SDS011;1736;52.068;6.968;2023-06-22T01:06:19;21.73;;;15.70;;
3443;SDS011;1736;52.068;6.968;2023-06-22T01:08:53;18.77;;;15.17;;
3443;SDS011;1736;52.068;6.968;2023-06-22T01:11:28;19.20;;;15.57;;
3443;SDS011;1736;52.068;6.968;2023-06-22T01:14:00;22.83;;;15.20;;
3443;SDS011;1736;52.068;6.968;2023-06-22T01:16:31;20.20;;;14.83;;
3443;SDS011;1736;52.068;6.968;2023-06-22T01:19:03;20.70;;;15.30;;
3443;SDS011;1736;52.068;6.968;2023-06-22T01:21:45;19.30;;;15.50;;
3443;SDS011;1736;52.068;6.968;2023-06-22T01:24:15;21.37;;;16.67;;
3443;SDS011;1736;52.068;6.968;2023-06-22T01:26:51;19.80;;;15.80;;
3443;SDS011;1736;52.068;6.968;2023-06-22T01:29:25;22.83;;;16.87;;
3443;SDS011;1736;52.068;6.968;2023-06-22T01:31:53;23.23;;;15.67;;
3443;SDS011;1736;52.068;6.968;2023-06-22T01:34:22;25.27;;;15.93;;
3443;SDS011;1736;52.068;6.968;2023-06-22T01:36:50;25.00;;;17.00;;
3443;SDS011;1736;52.068;6.968;2023-06-22T01:39:17;22.10;;;16.97;;
3443;SDS011;1736;52.068;6.968;2023-06-22T01:41:44;21.20;;;16.00;;
3443;SDS011;1736;52.068;6.968;2023-06-22T01:44:12;20.57;;;15.40;;
3443;SDS011;1736;52.068;6.968;2023-06-22T01:46:40;21.87;;;16.30;;
3443;SDS011;1736;52.068;6.968;2023-06-22T01:49:07;21.20;;;16.37;;
3443;SDS011;1736;52.068;6.968;2023-06-22T01:51:35;25.30;;;18.20;;
3443;SDS011;1736;52.068;6.968;2023-06-22T01:54:01;29.57;;;18.93;;
3443;SDS011;1736;52.068;6.968;2023-06-22T01:56:28;21.57;;;17.17;;
3443;SDS011;1736;52.068;6.968;2023-06-22T01:58:57;26.10;;;17.80;;
3443;SDS011;1736;52.068;6.968;2023-06-22T02:01:31;25.03;;;17.70;;
3443;SDS011;1736;52.068;6.968;2023-06-22T02:04:04;26.50;;;18.27;;
3443;SDS011;1736;52.068;6.968;2023-06-22T02:06:36;21.83;;;16.93;;
3443;SDS011;1736;52.068;6.968;2023-06-22T02:09:06;22.67;;;18.70;;
3443;SDS011;1736;52.068;6.968;2023-06-22T02:11:35;22.23;;;16.60;;
3443;SDS011;1736;52.068;6.968;2023-06-22T02:14:03;31.50;;;18.37;;
3443;SDS011;1736;52.068;6.968;2023-06-22T02:16:31;23.00;;;17.40;;
3443;SDS011;1736;52.068;6.968;2023-06-22T02:18:58;21.80;;;17.60;;
3443;SDS011;1736;52.068;6.968;2023-06-22T02:21:29;22.73;;;18.60;;
3443;SDS011;1736;52.068;6.968;2023-06-22T02:23:56;26.17;;;19.40;;
3443;SDS011;1736;52.068;6.968;2023-06-22T02:26:23;22.40;;;18.20;;
3443;SDS011;1736;52.068;6.968;2023-06-22T02:28:52;28.70;;;19.20;;
3443;SDS011;1736;52.068;6.968;2023-06-22T02:31:18;27.80;;;19.40;;
3443;SDS011;1736;52.068;6.968;2023-06-22T02:33:45;26.50;;;18.10;;
3443;SDS011;1736;52.068;6.968;2023-06-22T02:36:13;23.57;;;18.73;;
3443;SDS011;1736;52.068;6.968;2023-06-22T02:38:41;25.20;;;18.97;;
3443;SDS011;1736;52.068;6.968;2023-06-22T02:41:13;23.30;;;18.30;;
3443;SDS011;1736;52.068;6.968;2023-06-22T02:43:43;26.90;;;19.57;;
3443;SDS011;1736;52.068;6.968;2023-06-22T02:46:10;24.77;;;19.50;;
3443;SDS011;1736;52.068;6.968;2023-06-22T02:48:36;26.30;;;20.00;;
3443;SDS011;1736;52.068;6.968;2023-06-22T02:51:03;24.23;;;19.50;;
3443;SDS011;1736;52.068;6.968;2023-06-22T02:53:29;27.97;;;20.27;;
3443;SDS011;1736;52.068;6.968;2023-06-22T02:55:58;26.27;;;19.90;;
3443;SDS011;1736;52.068;6.968;2023-06-22T02:58:26;24.87;;;20.23;;
3443;SDS011;1736;52.068;6.968;2023-06-22T03:00:53;27.70;;;20.63;;
3443;SDS011;1736;52.068;6.968;2023-06-22T03:03:19;27.23;;;20.80;;
3443;SDS011;1736;52.068;6.968;2023-06-22T03:05:46;25.47;;;18.57;;
3443;SDS011;1736;52.068;6.968;2023-06-22T03:08:12;30.60;;;21.30;;
3443;SDS011;1736;52.068;6.968;2023-06-22T03:10:39;26.60;;;21.37;;
3443;SDS011;1736;52.068;6.968;2023-06-22T03:13:07;33.47;;;21.77;;
3443;SDS011;1736;52.068;6.968;2023-06-22T03:15:34;28.77;;;22.07;;
3443;SDS011;1736;52.068;6.968;2023-06-22T03:18:00;28.10;;;21.23;;
3443;SDS011;1736;52.068;6.968;2023-06-22T03:20:27;28.57;;;21.60;;
3443;SDS011;1736;52.068;6.968;2023-06-22T03:22:58;30.23;;;22.17;;
3443;SDS011;1736;52.068;6.968;2023-06-22T03:25:25;28.43;;;21.30;;
3443;SDS011;1736;52.068;6.968;2023-06-22T03:27:51;32.37;;;22.37;;
3443;SDS011;1736;52.068;6.968;2023-06-22T03:30:19;27.10;;;21.37;;
3443;SDS011;1736;52.068;6.968;2023-06-22T03:32:46;28.87;;;21.43;;
3443;SDS011;1736;52.068;6.968;2023-06-22T03:35:12;29.90;;;22.27;;
3443;SDS011;1736;52.068;6.968;2023-06-22T03:37:39;27.93;;;21.90;;
3443;SDS011;1736;52.068;6.968;2023-06-22T03:40:06;30.07;;;21.90;;
3443;SDS011;1736;52.068;6.968;2023-06-22T03:42:34;27.33;;;21.67;;
3443;SDS011;1736;52.068;6.968;2023-06-22T03:45:01;35.17;;;22.37;;
3443;SDS011;1736;52.068;6.968;2023-06-22T03:47:29;27.50;;;20.20;;
3443;SDS011;1736;52.068;6.968;2023-06-22T03:49:56;28.00;;;20.60;;
3443;SDS011;1736;52.068;6.968;2023-06-22T03:52:23;33.83;;;22.50;;
3443;SDS011;1736;52.068;6.968;2023-06-22T03:54:50;31.93;;;21.53;;
3443;SDS011;1736;52.068;6.968;2023-06-22T03:57:16;31.03;;;22.80;;
3443;SDS011;1736;52.068;6.968;2023-06-22T03:59:43;28.70;;;20.97;;
3443;SDS011;1736;52.068;6.968;2023-06-22T04:02:10;27.70;;;20.80;;
3443;SDS011;1736;52.068;6.968;2023-06-22T04:04:38;28.50;;;19.10;;
3443;SDS011;1736;52.068;6.968;2023-06-22T04:07:05;29.20;;;21.10;;
3443;SDS011;1736;52.068;6.968;2023-06-22T04:09:31;24.73;;;18.67;;
3443;SDS011;1736;52.068;6.968;2023-06-22T04:11:58;26.93;;;20.07;;
3443;SDS011;1736;52.068;6.968;2023-06-22T04:14:24;28.57;;;20.30;;
3443;SDS011;1736;52.068;6.968;2023-06-22T04:16:51;26.27;;;19.93;;
3443;SDS011;1736;52.068;6.968;2023-06-22T04:19:17;24.37;;;18.13;;
3443;SDS011;1736;52.068;6.968;2023-06-22T04:21:45;25.90;;;19.63;;
3443;SDS011;1736;52.068;6.968;2023-06-22T04:24:13;24.13;;;18.70;;
3443;SDS011;1736;52.068;6.968;2023-06-22T04:26:40;21.57;;;17.60;;
3443;SDS011;1736;52.068;6.968;2023-06-22T04:29:07;24.73;;;19.17;;
3443;SDS011;1736;52.068;6.968;2023-06-22T04:31:34;24.60;;;18.60;;
3443;SDS011;1736;52.068;6.968;2023-06-22T04:34:02;24.83;;;18.57;;
3443;SDS011;1736;52.068;6.968;2023-06-22T04:36:32;25.13;;;18.43;;
3443;SDS011;1736;52.068;6.968;2023-06-22T04:39:03;25.40;;;18.40;;
3443;SDS011;1736;52.068;6.968;2023-06-22T04:41:31;23.70;;;16.87;;
3443;SDS011;1736;52.068;6.968;2023-06-22T04:44:07;25.90;;;18.60;;
3443;SDS011;1736;52.068;6.968;2023-06-22T04:46:34;23.83;;;18.07;;
3443;SDS011;1736;52.068;6.968;2023-06-22T04:49:03;22.80;;;17.73;;
3443;SDS011;1736;52.068;6.968;2023-06-22T04:51:34;21.77;;;15.97;;
3443;SDS011;1736;52.068;6.968;2023-06-22T04:54:07;22.17;;;16.10;;
3443;SDS011;1736;52.068;6.968;2023-06-22T04:56:35;22.10;;;16.53;;
3443;SDS011;1736;52.068;6.968;2023-06-22T04:59:02;20.13;;;16.07;;
3443;SDS011;1736;52.068;6.968;2023-06-22T05:01:29;16.43;;;14.30;;
3443;SDS011;1736;52.068;6.968;2023-06-22T05:03:57;25.30;;;16.50;;
3443;SDS011;1736;52.068;6.968;2023-06-22T05:06:26;20.80;;;15.67;;
3443;SDS011;1736;52.068;6.968;2023-06-22T05:08:53;22.17;;;17.40;;
3443;SDS011;1736;52.068;6.968;2023-06-22T05:11:23;19.70;;;15.87;;
3443;SDS011;1736;52.068;6.968;2023-06-22T05:13:50;19.30;;;16.40;;
3443;SDS011;1736;52.068;6.968;2023-06-22T05:16:17;18.73;;;14.60;;
3443;SDS011;1736;52.068;6.968;2023-06-22T05:18:49;17.60;;;14.33;;
3443;SDS011;1736;52.068;6.968;2023-06-22T05:21:17;19.87;;;16.20;;
3443;SDS011;1736;52.068;6.968;2023-06-22T05:23:44;17.00;;;13.77;;
3443;SDS011;1736;52.068;6.968;2023-06-22T05:26:10;20.63;;;15.80;;
3443;SDS011;1736;52.068;6.968;2023-06-22T05:28:38;19.40;;;15.10;;
3443;SDS011;1736;52.068;6.968;2023-06-22T05:31:05;24.53;;;16.20;;
3443;SDS011;1736;52.068;6.968;2023-06-22T05:33:31;17.40;;;13.50;;
3443;SDS011;1736;52.068;6.968;2023-06-22T05:35:58;18.27;;;13.70;;
3443;SDS011;1736;52.068;6.968;2023-06-22T05:38:24;15.10;;;12.83;;
3443;SDS011;1736;52.068;6.968;2023-06-22T05:40:51;17.70;;;14.50;;
3443;SDS011;1736;52.068;6.968;2023-06-22T05:43:17;15.13;;;13.10;;
3443;SDS011;1736;52.068;6.968;2023-06-22T05:45:45;19.53;;;13.00;;
3443;SDS011;1736;52.068;6.968;2023-06-22T05:48:12;15.80;;;13.60;;
3443;SDS011;1736;52.068;6.968;2023-06-22T05:50:38;17.40;;;14.30;;
3443;SDS011;1736;52.068;6.968;2023-06-22T05:53:05;16.87;;;12.77;;
3443;SDS011;1736;52.068;6.968;2023-06-22T05:55:32;21.97;;;14.17;;
3443;SDS011;1736;52.068;6.968;2023-06-22T05:57:58;21.87;;;13.30;;
3443;SDS011;1736;52.068;6.968;2023-06-22T06:00:25;16.07;;;12.30;;
3443;SDS011;1736;52.068;6.968;2023-06-22T06:02:52;22.50;;;13.87;;
3443;SDS011;1736;52.068;6.968;2023-06-22T06:05:19;16.93;;;13.10;;
3443;SDS011;1736;52.068;6.968;2023-06-22T06:07:46;15.50;;;12.60;;
3443;SDS011;1736;52.068;6.968;2023-06-22T06:10:12;15.77;;;12.67;;
3443;SDS011;1736;52.068;6.968;2023-06-22T06:12:39;16.10;;;12.30;;
3443;SDS011;1736;52.068;6.968;2023-06-22T06:15:06;14.17;;;10.83;;
3443;SDS011;1736;52.068;6.968;2023-06-22T06:17:33;15.03;;;11.80;;
3443;SDS011;1736;52.068;6.968;2023-06-22T06:20:01;14.83;;;12.80;;
3443;SDS011;1736;52.068;6.968;2023-06-22T06:22:29;14.30;;;11.97;;
3443;SDS011;1736;52.068;6.968;2023-06-22T06:24:56;13.33;;;11.20;;
3443;SDS011;1736;52.068;6.968;2023-06-22T06:27:22;14.00;;;11.90;;
3443;SDS011;1736;52.068;6.968;2023-06-22T06:29:54;16.03;;;11.10;;
3443;SDS011;1736;52.068;6.968;2023-06-22T06:32:20;13.93;;;11.33;;
3443;SDS011;1736;52.068;6.968;2023-06-22T06:34:47;14.80;;;12.03;;
3443;SDS011;1736;52.068;6.968;2023-06-22T06:37:16;16.30;;;11.80;;
3443;SDS011;1736;52.068;6.968;2023-06-22T06:39:43;16.30;;;12.47;;
3443;SDS011;1736;52.068;6.968;2023-06-22T06:42:10;16.33;;;12.97;;
3443;SDS011;1736;52.068;6.968;2023-06-22T06:44:37;16.37;;;11.83;;
3443;SDS011;1736;52.068;6.968;2023-06-22T06:47:03;15.77;;;12.97;;
3443;SDS011;1736;52.068;6.968;2023-06-22T06:49:30;17.73;;;11.70;;
3443;SDS011;1736;52.068;6.968;2023-06-22T06:51:56;16.00;;;12.93;;
3443;SDS011;1736;52.068;6.968;2023-06-22T06:54:24;15.47;;;12.20;;
3443;SDS011;1736;52.068;6.968;2023-06-22T06:56:52;18.10;;;12.30;;
3443;SDS011;1736;52.068;6.968;2023-06-22T06:59:19;15.90;;;12.13;;
3443;SDS011;1736;52.068;6.968;2023-06-22T07:01:45;17.40;;;11.53;;
3443;SDS011;1736;52.068;6.968;2023-06-22T07:04:13;16.00;;;12.70;;
3443;SDS011;1736;52.068;6.968;2023-06-22T07:06:40;16.40;;;12.43;;
3443;SDS011;1736;52.068;6.968;2023-06-22T07:09:08;14.77;;;11.73;;
3443;SDS011;1736;52.068;6.968;2023-06-22T07:11:35;15.80;;;12.37;;
3443;SDS011;1736;52.068;6.968;2023-06-22T07:14:02;15.83;;;12.50;;
3443;SDS011;1736;52.068;6.968;2023-06-22T07:16:28;14.60;;;11.57;;
3443;SDS011;1736;52.068;6.968;2023-06-22T07:18:56;14.97;;;12.17;;
3443;SDS011;1736;52.068;6.968;2023-06-22T07:21:23;13.00;;;11.43;;
3443;SDS011;1736;52.068;6.968;2023-06-22T07:23:49;15.37;;;12.20;;
3443;SDS011;1736;52.068;6.968;2023-06-22T07:26:15;13.80;;;11.53;;
3443;SDS011;1736;52.068;6.968;2023-06-22T07:28:43;14.07;;;12.03;;
3443;SDS011;1736;52.068;6.968;2023-06-22T07:31:10;17.70;;;11.70;;
3443;SDS011;1736;52.068;6.968;2023-06-22T07:33:36;14.63;;;11.80;;
3443;SDS011;1736;52.068;6.968;2023-06-22T07:36:03;14.73;;;11.60;;
3443;SDS011;1736;52.068;6.968;2023-06-22T07:38:32;16.10;;;12.10;;
3443;SDS011;1736;52.068;6.968;2023-06-22T07:40:59;15.60;;;12.97;;
3443;SDS011;1736;52.068;6.968;2023-06-22T07:43:25;12.63;;;11.33;;
3443;SDS011;1736;52.068;6.968;2023-06-22T07:45:53;15.47;;;12.63;;
3443;SDS011;1736;52.068;6.968;2023-06-22T07:48:20;14.67;;;12.87;;
3443;SDS011;1736;52.068;6.968;2023-06-22T07:50:47;15.03;;;11.43;;
3443;SDS011;1736;52.068;6.968;2023-06-22T07:53:14;14.50;;;11.40;;
3443;SDS011;1736;52.068;6.968;2023-06-22T07:55:40;13.30;;;11.87;;
3443;SDS011;1736;52.068;6.968;2023-06-22T07:58:07;15.10;;;12.47;;
3443;SDS011;1736;52.068;6.968;2023-06-22T08:00:33;15.63;;;12.67;;
3443;SDS011;1736;52.068;6.968;2023-06-22T08:03:02;14.77;;;12.50;;
3443;SDS011;1736;52.068;6.968;2023-06-22T08:05:30;17.17;;;11.80;;
3443;SDS011;1736;52.068;6.968;2023-06-22T08:07:57;13.93;;;11.57;;
3443;SDS011;1736;52.068;6.968;2023-06-22T08:10:23;18.33;;;13.10;;
3443;SDS011;1736;52.068;6.968;2023-06-22T08:12:50;15.57;;;12.47;;
3443;SDS011;1736;52.068;6.968;2023-06-22T08:15:17;18.63;;;12.83;;
3443;SDS011;1736;52.068;6.968;2023-06-22T08:17:44;15.33;;;12.10;;
3443;SDS011;1736;52.068;6.968;2023-06-22T08:20:12;18.33;;;13.33;;
3443;SDS011;1736;52.068;6.968;2023-06-22T08:22:39;15.50;;;12.30;;
3443;SDS011;1736;52.068;6.968;2023-06-22T08:25:07;16.57;;;12.60;;
3443;SDS011;1736;52.068;6.968;2023-06-22T08:27:34;19.33;;;12.77;;
3443;SDS011;1736;52.068;6.968;2023-06-22T08:30:01;15.37;;;12.37;;
3443;SDS011;1736;52.068;6.968;2023-06-22T08:32:28;19.47;;;12.30;;
3443;SDS011;1736;52.068;6.968;2023-06-22T08:34:55;18.03;;;12.90;;
3443;SDS011;1736;52.068;6.968;2023-06-22T08:37:24;14.90;;;12.03;;
3443;SDS011;1736;52.068;6.968;2023-06-22T08:39:55;14.73;;;12.47;;
3443;SDS011;1736;52.068;6.968;2023-06-22T08:42:22;16.13;;;13.40;;
3443;SDS011;1736;52.068;6.968;2023-06-22T08:44:49;16.17;;;13.27;;
3443;SDS011;1736;52.068;6.968;2023-06-22T08:47:16;19.13;;;13.30;;
3443;SDS011;1736;52.068;6.968;2023-06-22T08:49:42;14.20;;;12.23;;
3443;SDS011;1736;52.068;6.968;2023-06-22T08:52:09;17.43;;;13.97;;
3443;SDS011;1736;52.068;6.968;2023-06-22T08:54:37;14.70;;;12.77;;
3443;SDS011;1736;52.068;6.968;2023-06-22T08:57:04;14.30;;;12.80;;
3443;SDS011;1736;52.068;6.968;2023-06-22T08:59:30;15.93;;;13.10;;
3443;SDS011;1736;52.068;6.968;2023-06-22T09:01:58;19.17;;;13.97;;
3443;SDS011;1736;52.068;6.968;2023-06-22T09:04:24;14.80;;;12.70;;
3443;SDS011;1736;52.068;6.968;2023-06-22T09:06:51;17.70;;;13.70;;
3443;SDS011;1736;52.068;6.968;2023-06-22T09:09:17;16.50;;;12.73;;
3443;SDS011;1736;52.068;6.968;2023-06-22T09:11:46;14.33;;;11.40;;
3443;SDS011;1736;52.068;6.968;2023-06-22T09:14:12;20.13;;;13.80;;
3443;SDS011;1736;52.068;6.968;2023-06-22T09:16:39;16.20;;;12.57;;
3443;SDS011;1736;52.068;6.968;2023-06-22T09:19:05;15.60;;;12.50;;
3443;SDS011;1736;52.068;6.968;2023-06-22T09:21:32;16.03;;;13.20;;
3443;SDS011;1736;52.068;6.968;2023-06-22T09:23:58;16.87;;;13.37;;
3443;SDS011;1736;52.068;6.968;2023-06-22T09:26:25;14.60;;;12.50;;
3443;SDS011;1736;52.068;6.968;2023-06-22T09:28:53;14.93;;;12.80;;
3443;SDS011;1736;52.068;6.968;2023-06-22T09:31:19;16.57;;;13.70;;
3443;SDS011;1736;52.068;6.968;2023-06-22T09:33:50;16.87;;;13.37;;
3443;SDS011;1736;52.068;6.968;2023-06-22T09:36:17;18.23;;;13.30;;
3443;SDS011;1736;52.068;6.968;2023-06-22T09:38:43;17.00;;;12.60;;
3443;SDS011;1736;52.068;6.968;2023-06-22T09:41:10;15.93;;;13.70;;
3443;SDS011;1736;52.068;6.968;2023-06-22T09:43:36;14.97;;;12.67;;
3443;SDS011;1736;52.068;6.968;2023-06-22T09:46:04;17.83;;;13.10;;
3443;SDS011;1736;52.068;6.968;2023-06-22T09:48:32;17.00;;;14.47;;
3443;SDS011;1736;52.068;6.968;2023-06-22T09:50:58;17.87;;;13.60;;
3443;SDS011;1736;52.068;6.968;2023-06-22T09:53:25;16.53;;;14.10;;
3443;SDS011;1736;52.068;6.968;2023-06-22T09:55:51;14.03;;;12.23;;
3443;SDS011;1736;52.068;6.968;2023-06-22T09:58:18;16.03;;;12.40;;
3443;SDS011;1736;52.068;6.968;2023-06-22T10:00:44;14.60;;;13.03;;
3443;SDS011;1736;52.068;6.968;2023-06-22T10:03:12;16.07;;;12.53;;
3443;SDS011;1736;52.068;6.968;2023-06-22T10:05:38;15.43;;;13.00;;
3443;SDS011;1736;52.068;6.968;2023-06-22T10:08:05;20.70;;;14.00;;
3443;SDS011;1736;52.068;6.968;2023-06-22T10:10:32;20.43;;;13.70;;
3443;SDS011;1736;52.068;6.968;2023-06-22T10:13:02;17.10;;;13.53;;
3443;SDS011;1736;52.068;6.968;2023-06-22T10:15:34;17.40;;;13.30;;
3443;SDS011;1736;52.068;6.968;2023-06-22T10:18:00;17.60;;;13.23;;
3443;SDS011;1736;52.068;6.968;2023-06-22T10:20:28;17.70;;;14.17;;
3443;SDS011;1736;52.068;6.968;2023-06-22T10:22:55;17.37;;;14.13;;
3443;SDS011;1736;52.068;6.968;2023-06-22T10:25:21;17.57;;;14.17;;
3443;SDS011;1736;52.068;6.968;2023-06-22T10:27:48;16.93;;;13.70;;
3443;SDS011;1736;52.068;6.968;2023-06-22T10:30:15;17.50;;;13.00;;
3443;SDS011;1736;52.068;6.968;2023-06-22T10:32:42;20.40;;;14.37;;
3443;SDS011;1736;52.068;6.968;2023-06-22T10:35:09;17.07;;;13.47;;
3443;SDS011;1736;52.068;6.968;2023-06-22T10:37:39;16.27;;;13.43;;
3443;SDS011;1736;52.068;6.968;2023-06-22T10:40:08;16.57;;;13.63;;
3443;SDS011;1736;52.068;6.968;2023-06-22T10:42:35;18.40;;;13.73;;
3443;SDS011;1736;52.068;6.968;2023-06-22T10:45:02;19.23;;;14.30;;
3443;SDS011;1736;52.068;6.968;2023-06-22T10:47:28;19.07;;;14.80;;
3443;SDS011;1736;52.068;6.968;2023-06-22T10:49:55;21.17;;;15.00;;
3443;SDS011;1736;52.068;6.968;2023-06-22T10:52:21;18.23;;;14.03;;
3443;SDS011;1736;52.068;6.968;2023-06-22T10:54:49;17.20;;;14.33;;
3443;SDS011;1736;52.068;6.968;2023-06-22T10:57:17;24.70;;;15.10;;
3443;SDS011;1736;52.068;6.968;2023-06-22T10:59:43;14.73;;;13.17;;
3443;SDS011;1736;52.068;6.968;2023-06-22T11:02:10;16.17;;;13.57;;
3443;SDS011;1736;52.068;6.968;2023-06-22T11:04:37;15.10;;;13.37;;
3443;SDS011;1736;52.068;6.968;2023-06-22T11:07:04;21.73;;;14.37;;
3443;SDS011;1736;52.068;6.968;2023-06-22T11:09:31;21.83;;;15.60;;
3443;SDS011;1736;52.068;6.968;2023-06-22T11:11:59;19.13;;;14.20;;
3443;SDS011;1736;52.068;6.968;2023-06-22T11:14:26;19.77;;;14.33;;
3443;SDS011;1736;52.068;6.968;2023-06-22T11:16:52;19.20;;;14.97;;
3443;SDS011;1736;52.068;6.968;2023-06-22T11:19:19;20.27;;;15.13;;
3443;SDS011;1736;52.068;6.968;2023-06-22T11:21:45;18.50;;;15.83;;
3443;SDS011;1736;52.068;6.968;2023-06-22T11:24:12;21.10;;;16.10;;
3443;SDS011;1736;52.068;6.968;2023-06-22T11:26:38;16.47;;;13.70;;
3443;SDS011;1736;52.068;6.968;2023-06-22T11:29:06;19.57;;;15.10;;
3443;SDS011;1736;52.068;6.968;2023-06-22T11:31:33;18.30;;;14.87;;
3443;SDS011;1736;52.068;6.968;2023-06-22T11:34:00;26.17;;;15.87;;
3443;SDS011;1736;52.068;6.968;2023-06-22T11:36:27;17.70;;;14.67;;
3443;SDS011;1736;52.068;6.968;2023-06-22T11:38:57;18.13;;;15.27;;
3443;SDS011;1736;52.068;6.968;2023-06-22T11:41:24;19.17;;;16.10;;
3443;SDS011;1736;52.068;6.968;2023-06-22T11:43:50;24.37;;;15.63;;
3443;SDS011;1736;52.068;6.968;2023-06-22T11:46:18;18.00;;;15.63;;
3443;SDS011;1736;52.068;6.968;2023-06-22T11:48:45;21.20;;;15.43;;
3443;SDS011;1736;52.068;6.968;2023-06-22T11:51:12;17.97;;;15.07;;
3443;SDS011;1736;52.068;6.968;2023-06-22T11:53:38;18.90;;;14.30;;
3443;SDS011;1736;52.068;6.968;2023-06-22T11:56:05;20.40;;;16.20;;
3443;SDS011;1736;52.068;6.968;2023-06-22T11:58:31;19.73;;;15.73;;
3443;SDS011;1736;52.068;6.968;2023-06-22T12:00:58;21.63;;;14.20;;
3443;SDS011;1736;52.068;6.968;2023-06-22T12:03:26;18.17;;;15.00;;
3443;SDS011;1736;52.068;6.968;2023-06-22T12:05:52;18.63;;;14.20;;
3443;SDS011;1736;52.068;6.968;2023-06-22T12:08:19;19.43;;;13.90;;
3443;SDS011;1736;52.068;6.968;2023-06-22T12:10:45;18.73;;;14.30;;
3443;SDS011;1736;52.068;6.968;2023-06-22T12:13:12;19.40;;;15.00;;
3443;SDS011;1736;52.068;6.968;2023-06-22T12:15:38;19.93;;;13.67;;
3443;SDS011;1736;52.068;6.968;2023-06-22T12:18:04;19.37;;;15.10;;
3443;SDS011;1736;52.068;6.968;2023-06-22T12:20:32;19.43;;;14.50;;
3443;SDS011;1736;52.068;6.968;2023-06-22T12:22:59;18.33;;;14.07;;
3443;SDS011;1736;52.068;6.968;2023-06-22T12:25:25;16.33;;;14.10;;
3443;SDS011;1736;52.068;6.968;2023-06-22T12:27:52;17.33;;;13.70;;
3443;SDS011;1736;52.068;6.968;2023-06-22T12:30:18;18.07;;;15.27;;
3443;SDS011;1736;52.068;6.968;2023-06-22T12:32:45;18.73;;;14.10;;
3443;SDS011;1736;52.068;6.968;2023-06-22T12:35:12;17.30;;;14.20;;
3443;SDS011;1736;52.068;6.968;2023-06-22T12:37:41;17.93;;;14.33;;
3443;SDS011;1736;52.068;6.968;2023-06-22T12:40:08;24.73;;;16.60;;
3443;SDS011;1736;52.068;6.968;2023-06-22T12:42:35;22.67;;;16.30;;
3443;SDS011;1736;52.068;6.968;2023-06-22T12:45:02;21.60;;;16.87;;
3443;SDS011;1736;52.068;6.968;2023-06-22T12:47:29;29.70;;;18.40;;
3443;SDS011;1736;52.068;6.968;2023-06-22T12:49:56;22.10;;;17.90;;
3443;SDS011;1736;52.068;6.968;2023-06-22T12:52:23;31.57;;;20.27;;
3443;SDS011;1736;52.068;6.968;2023-06-22T12:54:51;25.10;;;19.10;;
3443;SDS011;1736;52.068;6.968;2023-06-22T12:57:19;34.20;;;22.17;;
3443;SDS011;1736;52.068;6.968;2023-06-22T12:59:45;28.40;;;20.73;;
3443;SDS011;1736;52.068;6.968;2023-06-22T13:02:12;28.07;;;20.67;;
3443;SDS011;1736;52.068;6.968;2023-06-22T13:04:38;32.83;;;22.80;;
3443;SDS011;1736;52.068;6.968;2023-06-22T13:07:05;29.70;;;22.50;;
3443;SDS011;1736;52.068;6.968;2023-06-22T13:09:31;31.07;;;23.20;;
3443;SDS011;1736;52.068;6.968;2023-06-22T13:12:01;34.67;;;22.47;;
3443;SDS011;1736;52.068;6.968;2023-06-22T13:14:27;33.10;;;23.63;;
3443;SDS011;1736;52.068;6.968;2023-06-22T13:16:54;31.43;;;22.50;;
3443;SDS011;1736;52.068;6.968;2023-06-22T13:19:20;36.30;;;24.47;;
3443;SDS011;1736;52.068;6.968;2023-06-22T13:21:47;33.37;;;24.77;;
3443;SDS011;1736;52.068;6.968;2023-06-22T13:24:13;39.90;;;27.10;;
3443;SDS011;1736;52.068;6.968;2023-06-22T13:26:40;36.83;;;25.67;;
3443;SDS011;1736;52.068;6.968;2023-06-22T13:29:08;38.83;;;27.33;;
3443;SDS011;1736;52.068;6.968;2023-06-22T13:31:34;36.73;;;25.57;;
3443;SDS011;1736;52.068;6.968;2023-06-22T13:34:01;36.73;;;26.40;;
3443;SDS011;1736;52.068;6.968;2023-06-22T13:36:27;38.47;;;25.67;;
3443;SDS011;1736;52.068;6.968;2023-06-22T13:38:55;32.47;;;25.30;;
3443;SDS011;1736;52.068;6.968;2023-06-22T13:41:22;34.23;;;26.20;;
3443;SDS011;1736;52.068;6.968;2023-06-22T13:43:48;35.90;;;25.77;;
3443;SDS011;1736;52.068;6.968;2023-06-22T13:46:16;36.50;;;25.23;;
3443;SDS011;1736;52.068;6.968;2023-06-22T13:48:43;34.50;;;25.40;;
3443;SDS011;1736;52.068;6.968;2023-06-22T13:51:09;34.63;;;25.80;;
3443;SDS011;1736;52.068;6.968;2023-06-22T13:53:36;33.47;;;24.93;;
3443;SDS011;1736;52.068;6.968;2023-06-22T13:56:03;34.97;;;26.50;;
3443;SDS011;1736;52.068;6.968;2023-06-22T13:58:29;36.63;;;27.80;;
3443;SDS011;1736;52.068;6.968;2023-06-22T14:00:56;38.97;;;28.23;;
3443;SDS011;1736;52.068;6.968;2023-06-22T14:03:24;39.43;;;27.20;;
3443;SDS011;1736;52.068;6.968;2023-06-22T14:05:51;33.00;;;25.73;;
3443;SDS011;1736;52.068;6.968;2023-06-22T14:08:19;30.97;;;24.30;;
3443;SDS011;1736;52.068;6.968;2023-06-22T14:10:48;29.27;;;24.40;;
3443;SDS011;1736;52.068;6.968;2023-06-22T14:13:15;29.80;;;22.43;;
3443;SDS011;1736;52.068;6.968;2023-06-22T14:15:41;30.33;;;22.83;;
3443;SDS011;1736;52.068;6.968;2023-06-22T14:18:08;28.70;;;21.83;;
3443;SDS011;1736;52.068;6.968;2023-06-22T14:20:36;28.10;;;22.70;;
3443;SDS011;1736;52.068;6.968;2023-06-22T14:23:02;28.33;;;21.50;;
3443;SDS011;1736;52.068;6.968;2023-06-22T14:25:29;29.27;;;22.20;;
3443;SDS011;1736;52.068;6.968;2023-06-22T14:27:55;27.60;;;21.97;;
3443;SDS011;1736;52.068;6.968;2023-06-22T14:30:21;33.13;;;23.50;;
3443;SDS011;1736;52.068;6.968;2023-06-22T14:32:48;27.70;;;22.80;;
3443;SDS011;1736;52.068;6.968;2023-06-22T14:35:15;27.07;;;21.63;;
3443;SDS011;1736;52.068;6.968;2023-06-22T14:37:42;29.60;;;22.77;;
3443;SDS011;1736;52.068;6.968;2023-06-22T14:40:09;30.60;;;22.50;;
3443;SDS011;1736;52.068;6.968;2023-06-22T14:42:37;30.73;;;23.33;;
3443;SDS011;1736;52.068;6.968;2023-06-22T14:45:03;28.70;;;22.30;;
3443;SDS011;1736;52.068;6.968;2023-06-22T14:47:31;27.10;;;22.97;;
3443;SDS011;1736;52.068;6.968;2023-06-22T14:49:57;27.00;;;22.40;;